sensor_id;sensor_type;location;lat;lon;timestamp;P1;durP1;ratioP1;P2;durP2;ratioP2
14698;SDS011;7439;50.804;4.602;2022-09-13T00:02:19;4.67;;;4.27;;
14698;SDS011;7439;50.804;4.602;2022-09-13T00:04:48;5.47;;;4.63;;
14698;SDS011;7439;50.804;4.602;2022-09-13T00:07:15;8.17;;;4.53;;
14698;SDS011;7439;50.804;4.602;2022-09-13T00:09:42;4.80;;;4.37;;
14698;SDS011;7439;50.804;4.602;2022-09-13T00:12:09;6.40;;;4.70;;
14698;SDS011;7439;50.804;4.602;2022-09-13T00:14:36;10.37;;;5.10;;
14698;SDS011;7439;50.804;4.602;2022-09-13T00:17:03;5.17;;;4.60;;
14698;SDS011;7439;50.804;4.602;2022-09-13T00:19:31;5.40;;;4.90;;
14698;SDS011;7439;50.804;4.602;2022-09-13T00:21:59;5.47;;;4.97;;
14698;SDS011;7439;50.804;4.602;2022-09-13T00:24:27;8.17;;;4.93;;
14698;SDS011;7439;50.804;4.602;2022-09-13T00:26:54;5.43;;;4.10;;
14698;SDS011;7439;50.804;4.602;2022-09-13T00:29:21;9.10;;;4.83;;
14698;SDS011;7439;50.804;4.602;2022-09-13T00:31:48;6.53;;;4.50;;
14698;SDS011;7439;50.804;4.602;2022-09-13T00:34:15;7.13;;;4.60;;
14698;SDS011;7439;50.804;4.602;2022-09-13T00:36:42;10.77;;;5.60;;
14698;SDS011;7439;50.804;4.602;2022-09-13T00:39:11;6.43;;;5.00;;
14698;SDS011;7439;50.804;4.602;2022-09-13T00:41:38;4.83;;;4.43;;
14698;SDS011;7439;50.804;4.602;2022-09-13T00:47:05;7.53;;;4.77;;
14698;SDS011;7439;50.804;4.602;2022-09-13T00:49:34;5.57;;;5.07;;
14698;SDS011;7439;50.804;4.602;2022-09-13T00:52:04;5.53;;;5.03;;
14698;SDS011;7439;50.804;4.602;2022-09-13T00:54:38;7.30;;;4.70;;
14698;SDS011;7439;50.804;4.602;2022-09-13T00:57:07;7.60;;;4.77;;
14698;SDS011;7439;50.804;4.602;2022-09-13T00:59:38;5.83;;;5.00;;
14698;SDS011;7439;50.804;4.602;2022-09-13T01:02:09;5.53;;;5.00;;
14698;SDS011;7439;50.804;4.602;2022-09-13T01:04:37;5.07;;;4.57;;
14698;SDS011;7439;50.804;4.602;2022-09-13T01:07:05;7.47;;;5.30;;
14698;SDS011;7439;50.804;4.602;2022-09-13T01:09:33;5.23;;;4.73;;
14698;SDS011;7439;50.804;4.602;2022-09-13T01:12:04;5.47;;;4.23;;
14698;SDS011;7439;50.804;4.602;2022-09-13T01:14:36;5.50;;;4.77;;
14698;SDS011;7439;50.804;4.602;2022-09-13T01:17:03;5.30;;;4.80;;
14698;SDS011;7439;50.804;4.602;2022-09-13T01:19:31;5.10;;;4.63;;
14698;SDS011;7439;50.804;4.602;2022-09-13T01:22:08;8.83;;;4.97;;
14698;SDS011;7439;50.804;4.602;2022-09-13T01:25:11;8.93;;;5.10;;
14698;SDS011;7439;50.804;4.602;2022-09-13T01:28:09;8.90;;;5.07;;
14698;SDS011;7439;50.804;4.602;2022-09-13T01:30:56;6.60;;;4.87;;
14698;SDS011;7439;50.804;4.602;2022-09-13T01:33:36;6.40;;;5.10;;
14698;SDS011;7439;50.804;4.602;2022-09-13T01:36:21;7.40;;;5.17;;
14698;SDS011;7439;50.804;4.602;2022-09-13T01:39:01;6.40;;;4.43;;
14698;SDS011;7439;50.804;4.602;2022-09-13T01:44:27;6.47;;;5.43;;
14698;SDS011;7439;50.804;4.602;2022-09-13T01:47:05;6.47;;;5.27;;
14698;SDS011;7439;50.804;4.602;2022-09-13T01:49:42;6.83;;;5.23;;
14698;SDS011;7439;50.804;4.602;2022-09-13T01:52:16;5.30;;;4.80;;
14698;SDS011;7439;50.804;4.602;2022-09-13T01:54:52;7.50;;;5.43;;
14698;SDS011;7439;50.804;4.602;2022-09-13T01:57:26;5.50;;;4.93;;
14698;SDS011;7439;50.804;4.602;2022-09-13T01:59:59;5.43;;;4.80;;
14698;SDS011;7439;50.804;4.602;2022-09-13T02:02:32;7.43;;;5.60;;
14698;SDS011;7439;50.804;4.602;2022-09-13T02:05:05;5.80;;;5.27;;
14698;SDS011;7439;50.804;4.602;2022-09-13T02:07:38;7.10;;;5.30;;
14698;SDS011;7439;50.804;4.602;2022-09-13T02:10:08;6.23;;;5.20;;
14698;SDS011;7439;50.804;4.602;2022-09-13T02:12:39;13.33;;;5.00;;
14698;SDS011;7439;50.804;4.602;2022-09-13T02:15:09;7.47;;;5.00;;
14698;SDS011;7439;50.804;4.602;2022-09-13T02:17:42;7.40;;;5.03;;
14698;SDS011;7439;50.804;4.602;2022-09-13T02:20:14;6.10;;;5.43;;
14698;SDS011;7439;50.804;4.602;2022-09-13T02:22:47;7.40;;;5.13;;
14698;SDS011;7439;50.804;4.602;2022-09-13T02:25:18;6.00;;;5.00;;
14698;SDS011;7439;50.804;4.602;2022-09-13T02:27:48;6.83;;;5.20;;
14698;SDS011;7439;50.804;4.602;2022-09-13T02:30:18;6.53;;;5.00;;
14698;SDS011;7439;50.804;4.602;2022-09-13T02:32:48;5.77;;;5.20;;
14698;SDS011;7439;50.804;4.602;2022-09-13T02:35:20;6.80;;;4.97;;
14698;SDS011;7439;50.804;4.602;2022-09-13T02:37:54;6.23;;;4.67;;
14698;SDS011;7439;50.804;4.602;2022-09-13T02:40:29;9.07;;;5.20;;
14698;SDS011;7439;50.804;4.602;2022-09-13T02:43:04;6.30;;;5.30;;
14698;SDS011;7439;50.804;4.602;2022-09-13T02:45:39;9.80;;;4.93;;
14698;SDS011;7439;50.804;4.602;2022-09-13T02:48:16;6.60;;;5.03;;
14698;SDS011;7439;50.804;4.602;2022-09-13T02:51:01;5.67;;;5.10;;
14698;SDS011;7439;50.804;4.602;2022-09-13T02:53:34;6.63;;;5.07;;
14698;SDS011;7439;50.804;4.602;2022-09-13T02:56:09;5.47;;;4.90;;
14698;SDS011;7439;50.804;4.602;2022-09-13T02:58:43;6.30;;;4.97;;
14698;SDS011;7439;50.804;4.602;2022-09-13T03:01:13;5.90;;;5.40;;
14698;SDS011;7439;50.804;4.602;2022-09-13T03:03:42;5.23;;;4.73;;
14698;SDS011;7439;50.804;4.602;2022-09-13T03:06:09;8.93;;;5.23;;
14698;SDS011;7439;50.804;4.602;2022-09-13T03:08:37;7.17;;;4.73;;
14698;SDS011;7439;50.804;4.602;2022-09-13T03:11:06;6.20;;;4.97;;
14698;SDS011;7439;50.804;4.602;2022-09-13T03:13:41;5.27;;;4.67;;
14698;SDS011;7439;50.804;4.602;2022-09-13T03:16:22;8.63;;;5.50;;
14698;SDS011;7439;50.804;4.602;2022-09-13T03:19:16;5.13;;;4.40;;
14698;SDS011;7439;50.804;4.602;2022-09-13T03:21:54;4.90;;;4.40;;
14698;SDS011;7439;50.804;4.602;2022-09-13T03:24:34;4.57;;;4.20;;
14698;SDS011;7439;50.804;4.602;2022-09-13T03:27:11;5.23;;;4.73;;
14698;SDS011;7439;50.804;4.602;2022-09-13T03:29:47;5.90;;;4.67;;
14698;SDS011;7439;50.804;4.602;2022-09-13T03:32:22;5.13;;;4.47;;
14698;SDS011;7439;50.804;4.602;2022-09-13T03:34:57;4.87;;;4.43;;
14698;SDS011;7439;50.804;4.602;2022-09-13T03:37:31;6.17;;;4.53;;
14698;SDS011;7439;50.804;4.602;2022-09-13T03:40:10;6.37;;;4.33;;
14698;SDS011;7439;50.804;4.602;2022-09-13T03:42:40;6.27;;;4.43;;
14698;SDS011;7439;50.804;4.602;2022-09-13T03:45:11;5.10;;;4.70;;
14698;SDS011;7439;50.804;4.602;2022-09-13T03:47:41;5.47;;;4.87;;
14698;SDS011;7439;50.804;4.602;2022-09-13T03:50:15;5.27;;;4.67;;
14698;SDS011;7439;50.804;4.602;2022-09-13T03:52:45;8.17;;;5.00;;
14698;SDS011;7439;50.804;4.602;2022-09-13T03:55:16;5.17;;;4.67;;
14698;SDS011;7439;50.804;4.602;2022-09-13T03:57:44;5.53;;;4.73;;
14698;SDS011;7439;50.804;4.602;2022-09-13T04:00:11;5.87;;;4.87;;
14698;SDS011;7439;50.804;4.602;2022-09-13T04:02:42;6.90;;;5.30;;
14698;SDS011;7439;50.804;4.602;2022-09-13T04:05:09;6.67;;;5.27;;
14698;SDS011;7439;50.804;4.602;2022-09-13T04:07:38;6.20;;;5.00;;
14698;SDS011;7439;50.804;4.602;2022-09-13T04:10:05;10.63;;;5.27;;
14698;SDS011;7439;50.804;4.602;2022-09-13T04:12:34;6.50;;;5.37;;
14698;SDS011;7439;50.804;4.602;2022-09-13T04:15:01;8.40;;;5.07;;
14698;SDS011;7439;50.804;4.602;2022-09-13T04:17:28;5.60;;;5.00;;
14698;SDS011;7439;50.804;4.602;2022-09-13T04:19:55;5.87;;;4.77;;
14698;SDS011;7439;50.804;4.602;2022-09-13T04:22:22;6.20;;;5.03;;
14698;SDS011;7439;50.804;4.602;2022-09-13T04:24:50;6.07;;;5.53;;
14698;SDS011;7439;50.804;4.602;2022-09-13T04:27:18;5.93;;;4.80;;
14698;SDS011;7439;50.804;4.602;2022-09-13T04:29:45;10.60;;;4.77;;
14698;SDS011;7439;50.804;4.602;2022-09-13T04:32:12;5.17;;;4.67;;
14698;SDS011;7439;50.804;4.602;2022-09-13T04:34:39;6.07;;;4.50;;
14698;SDS011;7439;50.804;4.602;2022-09-13T04:37:07;4.70;;;4.37;;
14698;SDS011;7439;50.804;4.602;2022-09-13T04:39:34;5.80;;;5.20;;
14698;SDS011;7439;50.804;4.602;2022-09-13T04:42:03;5.77;;;5.00;;
14698;SDS011;7439;50.804;4.602;2022-09-13T04:44:31;5.23;;;4.73;;
14698;SDS011;7439;50.804;4.602;2022-09-13T04:46:58;5.33;;;4.83;;
14698;SDS011;7439;50.804;4.602;2022-09-13T04:49:25;5.63;;;5.13;;
14698;SDS011;7439;50.804;4.602;2022-09-13T04:51:52;5.10;;;4.60;;
14698;SDS011;7439;50.804;4.602;2022-09-13T04:54:19;5.97;;;5.17;;
14698;SDS011;7439;50.804;4.602;2022-09-13T04:56:47;6.23;;;5.57;;
14698;SDS011;7439;50.804;4.602;2022-09-13T04:59:16;5.43;;;4.93;;
14698;SDS011;7439;50.804;4.602;2022-09-13T05:01:43;5.23;;;4.83;;
14698;SDS011;7439;50.804;4.602;2022-09-13T05:04:10;8.27;;;5.23;;
14698;SDS011;7439;50.804;4.602;2022-09-13T05:06:37;5.93;;;5.33;;
14698;SDS011;7439;50.804;4.602;2022-09-13T05:09:04;6.40;;;5.77;;
14698;SDS011;7439;50.804;4.602;2022-09-13T05:11:31;6.60;;;4.90;;
14698;SDS011;7439;50.804;4.602;2022-09-13T05:13:59;5.67;;;5.10;;
14698;SDS011;7439;50.804;4.602;2022-09-13T05:16:28;8.33;;;5.50;;
14698;SDS011;7439;50.804;4.602;2022-09-13T05:18:56;6.53;;;5.40;;
14698;SDS011;7439;50.804;4.602;2022-09-13T05:21:24;12.97;;;5.80;;
14698;SDS011;7439;50.804;4.602;2022-09-13T05:23:53;12.60;;;6.07;;
14698;SDS011;7439;50.804;4.602;2022-09-13T05:26:22;6.13;;;5.00;;
14698;SDS011;7439;50.804;4.602;2022-09-13T05:28:50;6.40;;;5.77;;
14698;SDS011;7439;50.804;4.602;2022-09-13T05:31:18;7.37;;;5.20;;
14698;SDS011;7439;50.804;4.602;2022-09-13T05:33:51;9.73;;;6.10;;
14698;SDS011;7439;50.804;4.602;2022-09-13T05:36:20;11.40;;;5.10;;
14698;SDS011;7439;50.804;4.602;2022-09-13T05:38:47;8.00;;;5.60;;
14698;SDS011;7439;50.804;4.602;2022-09-13T05:41:14;9.63;;;6.20;;
14698;SDS011;7439;50.804;4.602;2022-09-13T05:43:41;6.23;;;5.37;;
14698;SDS011;7439;50.804;4.602;2022-09-13T05:46:09;7.40;;;5.77;;
14698;SDS011;7439;50.804;4.602;2022-09-13T05:48:37;6.07;;;5.47;;
14698;SDS011;7439;50.804;4.602;2022-09-13T05:51:07;7.53;;;6.00;;
14698;SDS011;7439;50.804;4.602;2022-09-13T05:53:35;7.77;;;5.10;;
14698;SDS011;7439;50.804;4.602;2022-09-13T05:56:04;10.20;;;5.63;;
14698;SDS011;7439;50.804;4.602;2022-09-13T05:58:31;9.77;;;5.67;;
14698;SDS011;7439;50.804;4.602;2022-09-13T06:00:59;10.63;;;5.53;;
14698;SDS011;7439;50.804;4.602;2022-09-13T06:03:27;10.77;;;6.53;;
14698;SDS011;7439;50.804;4.602;2022-09-13T06:05:54;9.67;;;5.60;;
14698;SDS011;7439;50.804;4.602;2022-09-13T06:08:24;6.00;;;5.40;;
14698;SDS011;7439;50.804;4.602;2022-09-13T06:10:53;11.97;;;5.83;;
14698;SDS011;7439;50.804;4.602;2022-09-13T06:13:21;6.00;;;5.50;;
14698;SDS011;7439;50.804;4.602;2022-09-13T06:15:49;6.47;;;5.77;;
14698;SDS011;7439;50.804;4.602;2022-09-13T06:18:17;6.40;;;5.80;;
14698;SDS011;7439;50.804;4.602;2022-09-13T06:20:44;8.87;;;6.17;;
14698;SDS011;7439;50.804;4.602;2022-09-13T06:23:12;7.00;;;6.30;;
14698;SDS011;7439;50.804;4.602;2022-09-13T06:25:41;7.57;;;6.10;;
14698;SDS011;7439;50.804;4.602;2022-09-13T06:28:09;7.10;;;6.07;;
14698;SDS011;7439;50.804;4.602;2022-09-13T06:30:36;7.40;;;5.53;;
14698;SDS011;7439;50.804;4.602;2022-09-13T06:33:03;7.47;;;6.10;;
14698;SDS011;7439;50.804;4.602;2022-09-13T06:35:30;14.00;;;6.50;;
14698;SDS011;7439;50.804;4.602;2022-09-13T06:37:57;11.53;;;5.83;;
14698;SDS011;7439;50.804;4.602;2022-09-13T06:40:25;5.93;;;5.50;;
14698;SDS011;7439;50.804;4.602;2022-09-13T06:42:53;8.90;;;5.83;;
14698;SDS011;7439;50.804;4.602;2022-09-13T06:45:20;11.67;;;5.60;;
14698;SDS011;7439;50.804;4.602;2022-09-13T06:47:48;6.90;;;6.10;;
14698;SDS011;7439;50.804;4.602;2022-09-13T06:50:15;12.70;;;6.80;;
14698;SDS011;7439;50.804;4.602;2022-09-13T06:52:42;6.93;;;5.90;;
14698;SDS011;7439;50.804;4.602;2022-09-13T06:55:09;10.33;;;5.87;;
14698;SDS011;7439;50.804;4.602;2022-09-13T06:57:36;6.47;;;5.70;;
14698;SDS011;7439;50.804;4.602;2022-09-13T07:00:06;6.93;;;6.33;;
14698;SDS011;7439;50.804;4.602;2022-09-13T07:02:34;6.63;;;5.90;;
14698;SDS011;7439;50.804;4.602;2022-09-13T07:05:01;8.40;;;5.77;;
14698;SDS011;7439;50.804;4.602;2022-09-13T07:07:29;9.67;;;5.50;;
14698;SDS011;7439;50.804;4.602;2022-09-13T07:09:56;7.27;;;6.20;;
14698;SDS011;7439;50.804;4.602;2022-09-13T07:12:25;8.03;;;5.90;;
14698;SDS011;7439;50.804;4.602;2022-09-13T07:14:52;7.17;;;6.47;;
14698;SDS011;7439;50.804;4.602;2022-09-13T07:17:20;8.87;;;6.53;;
14698;SDS011;7439;50.804;4.602;2022-09-13T07:19:47;7.13;;;6.33;;
14698;SDS011;7439;50.804;4.602;2022-09-13T07:22:15;8.20;;;6.50;;
14698;SDS011;7439;50.804;4.602;2022-09-13T07:24:42;7.07;;;6.47;;
14698;SDS011;7439;50.804;4.602;2022-09-13T07:27:09;6.70;;;6.10;;
14698;SDS011;7439;50.804;4.602;2022-09-13T07:29:37;6.97;;;6.30;;
14698;SDS011;7439;50.804;4.602;2022-09-13T07:32:04;15.10;;;6.77;;
14698;SDS011;7439;50.804;4.602;2022-09-13T07:34:32;6.47;;;5.87;;
14698;SDS011;7439;50.804;4.602;2022-09-13T07:37:00;7.53;;;6.00;;
14698;SDS011;7439;50.804;4.602;2022-09-13T07:39:27;8.80;;;6.33;;
14698;SDS011;7439;50.804;4.602;2022-09-13T07:41:54;6.57;;;5.97;;
14698;SDS011;7439;50.804;4.602;2022-09-13T07:44:21;6.70;;;5.60;;
14698;SDS011;7439;50.804;4.602;2022-09-13T07:46:48;8.10;;;5.93;;
14698;SDS011;7439;50.804;4.602;2022-09-13T07:49:18;9.37;;;6.03;;
14698;SDS011;7439;50.804;4.602;2022-09-13T07:51:46;11.60;;;5.47;;
14698;SDS011;7439;50.804;4.602;2022-09-13T07:54:15;9.47;;;5.63;;
14698;SDS011;7439;50.804;4.602;2022-09-13T07:56:43;5.63;;;4.93;;
14698;SDS011;7439;50.804;4.602;2022-09-13T07:59:11;5.33;;;4.83;;
14698;SDS011;7439;50.804;4.602;2022-09-13T08:01:40;7.03;;;5.13;;
14698;SDS011;7439;50.804;4.602;2022-09-13T08:04:09;5.77;;;4.87;;
14698;SDS011;7439;50.804;4.602;2022-09-13T08:06:38;8.20;;;5.07;;
14698;SDS011;7439;50.804;4.602;2022-09-13T08:09:09;5.87;;;4.30;;
14698;SDS011;7439;50.804;4.602;2022-09-13T08:11:37;5.43;;;4.30;;
14698;SDS011;7439;50.804;4.602;2022-09-13T08:14:05;6.93;;;4.07;;
14698;SDS011;7439;50.804;4.602;2022-09-13T08:16:34;5.00;;;4.47;;
14698;SDS011;7439;50.804;4.602;2022-09-13T08:19:04;4.77;;;4.17;;
14698;SDS011;7439;50.804;4.602;2022-09-13T08:21:32;4.20;;;3.80;;
14698;SDS011;7439;50.804;4.602;2022-09-13T08:24:00;4.37;;;3.97;;
14698;SDS011;7439;50.804;4.602;2022-09-13T08:26:30;5.53;;;4.00;;
14698;SDS011;7439;50.804;4.602;2022-09-13T08:28:58;6.00;;;4.30;;
14698;SDS011;7439;50.804;4.602;2022-09-13T08:31:27;4.73;;;3.87;;
14698;SDS011;7439;50.804;4.602;2022-09-13T08:33:55;9.07;;;4.17;;
14698;SDS011;7439;50.804;4.602;2022-09-13T08:36:23;4.77;;;3.67;;
14698;SDS011;7439;50.804;4.602;2022-09-13T08:38:51;5.30;;;4.07;;
14698;SDS011;7439;50.804;4.602;2022-09-13T08:44:27;7.60;;;3.90;;
14698;SDS011;7439;50.804;4.602;2022-09-13T08:47:01;6.20;;;3.73;;
14698;SDS011;7439;50.804;4.602;2022-09-13T08:49:40;5.60;;;3.60;;
14698;SDS011;7439;50.804;4.602;2022-09-13T08:52:27;5.57;;;4.10;;
14698;SDS011;7439;50.804;4.602;2022-09-13T08:54:56;5.67;;;3.40;;
14698;SDS011;7439;50.804;4.602;2022-09-13T08:57:25;8.27;;;4.30;;
14698;SDS011;7439;50.804;4.602;2022-09-13T09:00:00;5.73;;;4.03;;
14698;SDS011;7439;50.804;4.602;2022-09-13T09:02:45;3.73;;;3.37;;
14698;SDS011;7439;50.804;4.602;2022-09-13T09:05:20;4.63;;;3.80;;
14698;SDS011;7439;50.804;4.602;2022-09-13T09:07:50;5.67;;;3.50;;
14698;SDS011;7439;50.804;4.602;2022-09-13T09:10:23;5.23;;;3.50;;
14698;SDS011;7439;50.804;4.602;2022-09-13T09:12:54;5.07;;;3.67;;
14698;SDS011;7439;50.804;4.602;2022-09-13T09:15:26;5.80;;;3.07;;
14698;SDS011;7439;50.804;4.602;2022-09-13T09:18:01;5.23;;;3.37;;
14698;SDS011;7439;50.804;4.602;2022-09-13T09:20:32;4.47;;;3.40;;
14698;SDS011;7439;50.804;4.602;2022-09-13T09:23:07;4.87;;;3.50;;
14698;SDS011;7439;50.804;4.602;2022-09-13T09:25:39;5.57;;;3.73;;
14698;SDS011;7439;50.804;4.602;2022-09-13T09:28:08;4.23;;;3.77;;
14698;SDS011;7439;50.804;4.602;2022-09-13T09:30:40;5.10;;;4.60;;
14698;SDS011;7439;50.804;4.602;2022-09-13T09:33:20;4.47;;;4.03;;
14698;SDS011;7439;50.804;4.602;2022-09-13T09:36:02;6.63;;;4.50;;
14698;SDS011;7439;50.804;4.602;2022-09-13T09:38:35;4.93;;;4.17;;
14698;SDS011;7439;50.804;4.602;2022-09-13T09:41:10;7.43;;;4.53;;
14698;SDS011;7439;50.804;4.602;2022-09-13T09:43:41;7.90;;;4.70;;
14698;SDS011;7439;50.804;4.602;2022-09-13T09:46:18;4.93;;;4.30;;
14698;SDS011;7439;50.804;4.602;2022-09-13T09:48:51;4.93;;;4.40;;
14698;SDS011;7439;50.804;4.602;2022-09-13T09:51:22;4.87;;;4.37;;
14698;SDS011;7439;50.804;4.602;2022-09-13T09:53:53;4.70;;;4.30;;
14698;SDS011;7439;50.804;4.602;2022-09-13T09:56:27;7.03;;;4.30;;
14698;SDS011;7439;50.804;4.602;2022-09-13T09:58:56;8.50;;;4.70;;
14698;SDS011;7439;50.804;4.602;2022-09-13T10:01:25;4.67;;;4.27;;
14698;SDS011;7439;50.804;4.602;2022-09-13T10:03:57;5.43;;;4.10;;
14698;SDS011;7439;50.804;4.602;2022-09-13T10:06:30;5.63;;;4.07;;
14698;SDS011;7439;50.804;4.602;2022-09-13T10:08:58;5.47;;;4.17;;
14698;SDS011;7439;50.804;4.602;2022-09-13T10:11:40;4.63;;;3.43;;
14698;SDS011;7439;50.804;4.602;2022-09-13T10:14:29;6.30;;;3.80;;
14698;SDS011;7439;50.804;4.602;2022-09-13T10:17:11;4.17;;;3.23;;
14698;SDS011;7439;50.804;4.602;2022-09-13T10:19:48;4.20;;;3.80;;
14698;SDS011;7439;50.804;4.602;2022-09-13T10:22:18;6.47;;;3.80;;
14698;SDS011;7439;50.804;4.602;2022-09-13T10:24:46;3.60;;;3.30;;
14698;SDS011;7439;50.804;4.602;2022-09-13T10:27:24;3.77;;;3.30;;
14698;SDS011;7439;50.804;4.602;2022-09-13T10:29:56;6.00;;;3.60;;
14698;SDS011;7439;50.804;4.602;2022-09-13T10:32:26;3.70;;;3.23;;
14698;SDS011;7439;50.804;4.602;2022-09-13T10:34:54;3.57;;;3.23;;
14698;SDS011;7439;50.804;4.602;2022-09-13T10:37:27;4.90;;;3.33;;
14698;SDS011;7439;50.804;4.602;2022-09-13T10:40:00;6.53;;;3.57;;
14698;SDS011;7439;50.804;4.602;2022-09-13T10:42:31;3.83;;;3.53;;
14698;SDS011;7439;50.804;4.602;2022-09-13T10:44:59;4.63;;;3.40;;
14698;SDS011;7439;50.804;4.602;2022-09-13T10:47:30;4.20;;;3.00;;
14698;SDS011;7439;50.804;4.602;2022-09-13T10:50:10;6.03;;;3.63;;
14698;SDS011;7439;50.804;4.602;2022-09-13T10:52:44;4.13;;;3.70;;
14698;SDS011;7439;50.804;4.602;2022-09-13T10:58:18;4.03;;;3.63;;
14698;SDS011;7439;50.804;4.602;2022-09-13T11:00:58;5.10;;;3.10;;
14698;SDS011;7439;50.804;4.602;2022-09-13T11:03:57;4.00;;;3.60;;
14698;SDS011;7439;50.804;4.602;2022-09-13T11:09:55;4.90;;;3.50;;
14698;SDS011;7439;50.804;4.602;2022-09-13T11:12:34;5.60;;;3.60;;
14698;SDS011;7439;50.804;4.602;2022-09-13T11:15:10;4.27;;;3.60;;
14698;SDS011;7439;50.804;4.602;2022-09-13T11:18:00;4.63;;;3.50;;
14698;SDS011;7439;50.804;4.602;2022-09-13T11:20:42;4.97;;;3.50;;
14698;SDS011;7439;50.804;4.602;2022-09-13T11:26:23;3.50;;;3.03;;
14698;SDS011;7439;50.804;4.602;2022-09-13T11:29:08;4.13;;;3.07;;
14698;SDS011;7439;50.804;4.602;2022-09-13T11:31:47;6.53;;;3.17;;
14698;SDS011;7439;50.804;4.602;2022-09-13T11:34:26;3.50;;;3.20;;
14698;SDS011;7439;50.804;4.602;2022-09-13T11:37:05;4.50;;;3.13;;
14698;SDS011;7439;50.804;4.602;2022-09-13T11:39:44;6.97;;;2.80;;
14698;SDS011;7439;50.804;4.602;2022-09-13T11:42:20;4.30;;;3.20;;
14698;SDS011;7439;50.804;4.602;2022-09-13T11:45:03;11.43;;;4.17;;
14698;SDS011;7439;50.804;4.602;2022-09-13T11:47:47;4.73;;;3.00;;
14698;SDS011;7439;50.804;4.602;2022-09-13T11:50:32;4.33;;;2.87;;
14698;SDS011;7439;50.804;4.602;2022-09-13T11:53:09;5.13;;;3.23;;
14698;SDS011;7439;50.804;4.602;2022-09-13T11:55:58;3.60;;;3.27;;
14698;SDS011;7439;50.804;4.602;2022-09-13T11:58:28;4.37;;;3.10;;
14698;SDS011;7439;50.804;4.602;2022-09-13T12:01:00;4.60;;;3.40;;
14698;SDS011;7439;50.804;4.602;2022-09-13T12:03:30;4.30;;;3.20;;
14698;SDS011;7439;50.804;4.602;2022-09-13T12:06:17;4.97;;;3.37;;
14698;SDS011;7439;50.804;4.602;2022-09-13T12:08:48;2.97;;;2.67;;
14698;SDS011;7439;50.804;4.602;2022-09-13T12:11:18;3.80;;;3.23;;
14698;SDS011;7439;50.804;4.602;2022-09-13T12:13:50;5.07;;;3.13;;
14698;SDS011;7439;50.804;4.602;2022-09-13T12:16:21;6.47;;;3.60;;
14698;SDS011;7439;50.804;4.602;2022-09-13T12:18:52;4.53;;;3.23;;
14698;SDS011;7439;50.804;4.602;2022-09-13T12:21:23;4.40;;;2.93;;
14698;SDS011;7439;50.804;4.602;2022-09-13T12:23:55;4.00;;;2.93;;
14698;SDS011;7439;50.804;4.602;2022-09-13T12:26:29;4.63;;;3.13;;
14698;SDS011;7439;50.804;4.602;2022-09-13T12:29:00;3.47;;;3.17;;
14698;SDS011;7439;50.804;4.602;2022-09-13T12:31:32;5.30;;;3.63;;
14698;SDS011;7439;50.804;4.602;2022-09-13T12:33:59;4.53;;;3.90;;
14698;SDS011;7439;50.804;4.602;2022-09-13T12:36:43;5.30;;;3.27;;
14698;SDS011;7439;50.804;4.602;2022-09-13T12:39:32;3.40;;;3.10;;
14698;SDS011;7439;50.804;4.602;2022-09-13T12:42:24;7.60;;;3.50;;
14698;SDS011;7439;50.804;4.602;2022-09-13T12:45:22;3.27;;;2.97;;
14698;SDS011;7439;50.804;4.602;2022-09-13T12:48:13;6.03;;;3.23;;
14698;SDS011;7439;50.804;4.602;2022-09-13T12:57:15;3.43;;;3.13;;
14698;SDS011;7439;50.804;4.602;2022-09-13T13:00:09;5.53;;;3.20;;
14698;SDS011;7439;50.804;4.602;2022-09-13T13:02:44;3.87;;;2.97;;
14698;SDS011;7439;50.804;4.602;2022-09-13T13:05:19;4.53;;;3.40;;
14698;SDS011;7439;50.804;4.602;2022-09-13T13:07:51;3.57;;;3.27;;
14698;SDS011;7439;50.804;4.602;2022-09-13T13:10:26;10.50;;;3.40;;
14698;SDS011;7439;50.804;4.602;2022-09-13T13:12:56;4.60;;;3.43;;
14698;SDS011;7439;50.804;4.602;2022-09-13T13:15:56;3.67;;;3.30;;
14698;SDS011;7439;50.804;4.602;2022-09-13T13:18:27;3.70;;;3.40;;
14698;SDS011;7439;50.804;4.602;2022-09-13T13:21:04;5.53;;;3.23;;
14698;SDS011;7439;50.804;4.602;2022-09-13T13:23:47;3.13;;;2.83;;
14698;SDS011;7439;50.804;4.602;2022-09-13T13:26:45;3.93;;;3.40;;
14698;SDS011;7439;50.804;4.602;2022-09-13T13:29:14;4.73;;;3.40;;
14698;SDS011;7439;50.804;4.602;2022-09-13T13:31:44;3.50;;;3.20;;
14698;SDS011;7439;50.804;4.602;2022-09-13T13:34:38;6.90;;;3.30;;
14698;SDS011;7439;50.804;4.602;2022-09-13T13:40:21;3.30;;;3.10;;
14698;SDS011;7439;50.804;4.602;2022-09-13T13:42:52;6.40;;;3.30;;
14698;SDS011;7439;50.804;4.602;2022-09-13T13:45:58;4.73;;;3.40;;
14698;SDS011;7439;50.804;4.602;2022-09-13T13:48:40;4.23;;;3.57;;
14698;SDS011;7439;50.804;4.602;2022-09-13T13:51:18;5.03;;;3.93;;
14698;SDS011;7439;50.804;4.602;2022-09-13T13:53:48;3.90;;;3.40;;
14698;SDS011;7439;50.804;4.602;2022-09-13T13:56:21;5.60;;;3.67;;
14698;SDS011;7439;50.804;4.602;2022-09-13T13:59:07;4.20;;;3.80;;
14698;SDS011;7439;50.804;4.602;2022-09-13T14:01:42;4.10;;;3.47;;
14698;SDS011;7439;50.804;4.602;2022-09-13T14:04:34;7.70;;;4.20;;
14698;SDS011;7439;50.804;4.602;2022-09-13T14:07:26;5.30;;;4.03;;
14698;SDS011;7439;50.804;4.602;2022-09-13T14:10:10;8.70;;;4.37;;
14698;SDS011;7439;50.804;4.602;2022-09-13T14:12:53;5.87;;;3.87;;
14698;SDS011;7439;50.804;4.602;2022-09-13T14:15:45;4.63;;;4.23;;
14698;SDS011;7439;50.804;4.602;2022-09-13T14:18:28;6.70;;;4.37;;
14698;SDS011;7439;50.804;4.602;2022-09-13T14:21:17;7.23;;;5.00;;
14698;SDS011;7439;50.804;4.602;2022-09-13T14:23:47;5.83;;;3.97;;
14698;SDS011;7439;50.804;4.602;2022-09-13T14:26:14;4.70;;;4.30;;
14698;SDS011;7439;50.804;4.602;2022-09-13T14:28:42;6.60;;;4.00;;
14698;SDS011;7439;50.804;4.602;2022-09-13T14:31:15;5.13;;;4.63;;
14698;SDS011;7439;50.804;4.602;2022-09-13T14:33:44;11.30;;;4.27;;
14698;SDS011;7439;50.804;4.602;2022-09-13T14:36:15;8.83;;;4.63;;
14698;SDS011;7439;50.804;4.602;2022-09-13T14:38:48;6.33;;;4.23;;
14698;SDS011;7439;50.804;4.602;2022-09-13T14:41:17;4.67;;;4.07;;
14698;SDS011;7439;50.804;4.602;2022-09-13T14:43:46;7.30;;;4.03;;
14698;SDS011;7439;50.804;4.602;2022-09-13T14:46:16;5.57;;;3.70;;
14698;SDS011;7439;50.804;4.602;2022-09-13T14:48:48;5.70;;;4.60;;
14698;SDS011;7439;50.804;4.602;2022-09-13T14:51:20;5.03;;;4.53;;
14698;SDS011;7439;50.804;4.602;2022-09-13T14:53:52;4.37;;;3.80;;
14698;SDS011;7439;50.804;4.602;2022-09-13T14:56:26;5.03;;;3.77;;
14698;SDS011;7439;50.804;4.602;2022-09-13T14:58:57;4.13;;;3.83;;
14698;SDS011;7439;50.804;4.602;2022-09-13T15:01:28;4.80;;;4.40;;
14698;SDS011;7439;50.804;4.602;2022-09-13T15:03:57;4.33;;;3.73;;
14698;SDS011;7439;50.804;4.602;2022-09-13T15:06:26;5.30;;;3.63;;
14698;SDS011;7439;50.804;4.602;2022-09-13T15:08:56;8.83;;;4.60;;
14698;SDS011;7439;50.804;4.602;2022-09-13T15:11:27;5.47;;;4.03;;
14698;SDS011;7439;50.804;4.602;2022-09-13T15:14:00;5.67;;;4.57;;
14698;SDS011;7439;50.804;4.602;2022-09-13T15:16:49;5.97;;;4.80;;
14698;SDS011;7439;50.804;4.602;2022-09-13T15:19:25;5.40;;;4.93;;
14698;SDS011;7439;50.804;4.602;2022-09-13T15:22:01;5.27;;;4.77;;
14698;SDS011;7439;50.804;4.602;2022-09-13T15:24:31;5.47;;;4.97;;
14698;SDS011;7439;50.804;4.602;2022-09-13T15:27:03;7.53;;;5.20;;
14698;SDS011;7439;50.804;4.602;2022-09-13T15:29:31;7.37;;;4.97;;
14698;SDS011;7439;50.804;4.602;2022-09-13T15:32:03;8.03;;;5.43;;
14698;SDS011;7439;50.804;4.602;2022-09-13T15:34:31;7.20;;;5.87;;
14698;SDS011;7439;50.804;4.602;2022-09-13T15:37:07;6.10;;;5.50;;
14698;SDS011;7439;50.804;4.602;2022-09-13T15:39:42;7.80;;;5.70;;
14698;SDS011;7439;50.804;4.602;2022-09-13T15:42:11;6.53;;;5.40;;
14698;SDS011;7439;50.804;4.602;2022-09-13T15:44:38;9.57;;;6.87;;
14698;SDS011;7439;50.804;4.602;2022-09-13T15:47:09;8.20;;;7.40;;
14698;SDS011;7439;50.804;4.602;2022-09-13T15:49:40;7.53;;;6.77;;
14698;SDS011;7439;50.804;4.602;2022-09-13T15:52:14;8.00;;;6.80;;
14698;SDS011;7439;50.804;4.602;2022-09-13T15:54:42;6.70;;;6.07;;
14698;SDS011;7439;50.804;4.602;2022-09-13T15:57:12;7.27;;;6.60;;
14698;SDS011;7439;50.804;4.602;2022-09-13T15:59:44;11.03;;;7.63;;
14698;SDS011;7439;50.804;4.602;2022-09-13T16:02:19;12.60;;;6.80;;